• Join FlightAware (Why Join?)
  • Login
  • US Flag 
12:10AM EDT


 

Airport Tracker/Info


-or-


 

Live Flight TrackerFlight Track Log ✈ N340K ✈ 20-Feb-2014 ✈ M50 - KBVS

Flight Track Log - Related Links

Times and Time Zones

All times are in EST time to prevent confusion due to time zone crossing. See the N340K flight status page for this flight to view local times or setup timezone preferences in your user account.

Time Position Orientation Groundspeed Altitude Reporting Facility
EST Latitude Longitude Course Direction KTS MPH feet Rate Location/Type
08:45PM 46.3767 -120.2994 331° Northwest 129 148 10,500  Level Seattle Center
08:46PM 46.4100 -120.3258 331° Northwest 130 150 10,800 540 Climbing Seattle Center
08:47PM 46.4375 -120.3444 335° Northwest 107 123 11,600 600 Climbing Seattle Center
08:48PM 46.4675 -120.3603 340° North 115 132 12,100 240 Climbing Seattle Center
08:49PM 46.4994 -120.3869 330° Northwest 131 151 12,100  Level Seattle Center
08:50PM 46.5303 -120.4097 333° Northwest 125 144 12,100  Level Seattle Center
08:51PM 46.5642 -120.4372 331° Northwest 130 150 12,100  Level Seattle Center
08:52PM 46.5972 -120.4661 329° Northwest 139 160 12,100  Level Seattle Center
08:53PM 46.6303 -120.5006 324° Northwest 146 168 12,100  Level Seattle Center
08:54PM 46.6622 -120.5328 325° Northwest 141 162 12,100 -60 Level Seattle Center
08:55PM 46.6964 -120.5656 327° Northwest 145 167 12,000  Descending Seattle Center
08:56PM 46.7283 -120.5967 326° Northwest 138 159 12,100  Climbing Seattle Center
08:57PM 46.7569 -120.6275 324° Northwest 130 150 12,100 -60 Level Seattle Center
08:58PM 46.7922 -120.6631 325° Northwest 140 161 12,000 -60 Descending Seattle Center
09:00PM 46.8233 -120.6936 326° Northwest 135 155 12,000  Level Seattle Center
09:01PM 46.8511 -120.7225 325° Northwest 124 143 12,100  Climbing Seattle Center
09:02PM 46.8811 -120.7517 326° Northwest 128 147 12,100  Level Seattle Center
09:03PM 46.9119 -120.7839 324° Northwest 135 155 12,100 -60 Level Seattle Center
09:04PM 46.9417 -120.8142 325° Northwest 131 151 12,000  Descending Seattle Center
09:05PM 46.9719 -120.8431 327° Northwest 129 148 12,100  Climbing Seattle Center
09:06PM 46.9986 -120.8703 325° Northwest 115 132 12,100  Level Seattle Center
09:07PM 47.0244 -120.8969 325° Northwest 107 123 12,200  Climbing Seattle Center
09:08PM 47.0500 -120.9239 324° Northwest 113 130 12,200 120 Level Seattle Center
09:09PM 47.0783 -120.9492 329° Northwest 118 136 12,500 480 Climbing Seattle Center
09:10PM 47.1050 -120.9761 325° Northwest 116 133 13,200 660 Climbing Seattle Center
09:11PM 47.1306 -121.0028 325° Northwest 112 129 13,900 420 Climbing Seattle Center
09:12PM 47.1572 -121.0325 323° Northwest 121 139 14,100 60 Climbing Seattle Center
09:13PM 47.1867 -121.0617 326° Northwest 128 147 14,100  Level Seattle Center
09:14PM 47.2156 -121.0914 325° Northwest 125 144 14,100  Level Seattle Center
09:15PM 47.2433 -121.1183 327° Northwest 121 139 14,100  Level Seattle Center
09:16PM 47.2722 -121.1514 322° Northwest 118 136 14,100  Level Seattle Center
09:17PM 47.2942 -121.1756 323° Northwest 122 140 14,100  Level Seattle Center
09:18PM 47.3300 -121.2136 324° Northwest 131 151 14,100  Level Seattle Center
09:19PM 47.3594 -121.2436 325° Northwest 135 155 14,100  Level Seattle Center
09:20PM 47.3892 -121.2725 327° Northwest 132 152 14,100  Level Seattle Center
09:21PM 47.4200 -121.3044 325° Northwest 130 150 14,100  Level Seattle Center
09:22PM 47.4492 -121.3347 325° Northwest 130 150 14,100 -60 Level Seattle Center
09:23PM 47.4797 -121.3678 324° Northwest 136 157 14,000  Descending Seattle Center
09:24PM 47.5100 -121.3969 327° Northwest 130 150 14,100  Climbing Seattle Center
09:25PM 47.5381 -121.4275 324° Northwest 125 144 14,100  Level Seattle Center
09:26PM 47.5653 -121.4553 325° Northwest 119 137 14,100  Level Seattle Center
09:27PM 47.5989 -121.4914 324° Northwest 137 158 14,100  Level Seattle Center
09:28PM 47.6267 -121.5203 325° Northwest 124 143 14,100  Level Seattle Center
09:29PM 47.6561 -121.5533 323° Northwest 132 152 14,100  Level Seattle Center
09:30PM 47.6875 -121.5831 327° Northwest 133 153 14,100  Level Seattle Center
09:31PM 47.7144 -121.6144 322° Northwest 124 143 14,100  Level Seattle Center
09:32PM 47.7442 -121.6481 323° Northwest 134 154 14,100  Level Seattle Center
09:33PM 47.7775 -121.6778 329° Northwest 130 150 14,100  Level Seattle Center
09:34PM 47.8042 -121.7094 321° Northwest 125 144 14,100  Level Seattle Center
09:35PM 47.8344 -121.7406 325° Northwest 134 154 14,100  Level Seattle Center
09:36PM 47.8656 -121.7725 325° Northwest 135 155 14,100  Level Seattle Center
09:37PM 47.8950 -121.8025 326° Northwest 131 151 14,100 -60 Level Seattle Center
09:38PM 47.9247 -121.8350 324° Northwest 132 152 14,000  Descending Seattle Center
09:38PM 47.9389 -121.8533 319° Northwest 137 158 14,100  Climbing Seattle Center
09:39PM 47.9556 -121.8664 332° Northwest 134 154 14,000 -420 Descending Seattle Center
09:39PM 47.9692 -121.8825 322° Northwest 132 152 13,700 -600 Descending Seattle Center
09:40PM 47.9861 -121.9003 325° Northwest 136 157 13,400 -540 Descending Seattle Center
09:40PM 48.0014 -121.9200 319° Northwest 147 169 13,200 -540 Descending Seattle Center
09:41PM 48.0208 -121.9389 327° Northwest 153 176 12,900 -600 Descending Seattle Center
09:41PM 48.0342 -121.9508 329° Northwest 158 182 12,700 -600 Descending Seattle Center
09:42PM 48.0658 -121.9856 324° Northwest 158 182 12,200 -540 Descending Seattle Center
09:43PM 48.0925 -122.0131 325° Northwest 160 184 11,800 -720 Descending Seattle Center
09:43PM 48.1008 -122.0253 316° Northwest 160 184 11,500 -300 Descending Seattle Center
09:44PM 48.1283 -122.0511 328° Northwest 159 183 11,500  Level Seattle Center
09:44PM 48.1378 -122.0636 319° Northwest 153 176 11,500 -720 Level Seattle Center
09:45PM 48.1531 -122.1092 297° West 150 173 10,800 -840 Descending Seattle Center
09:45PM 48.1531 -122.1214 270° West 151 174 10,700 -900 Descending Seattle Center
09:46PM 48.1811 -122.1561 320° Northwest 169 194 9,900 -1,020 Descending Seattle Center
09:46PM 48.1881 -122.1611 334° Northwest 177 204 9,700 -1,380 Descending Seattle Center
09:47PM 48.2319 -122.1814 343° North 191 220 8,500 -1,620 Descending Seattle Center
09:47PM 48.2369 -122.1861 328° Northwest 196 226 8,100 -1,680 Descending Seattle Center
09:48PM 48.2803 -122.2411 320° Northwest 192 221 6,600 -1,500 Descending Seattle Center
09:49PM 48.3203 -122.2686 335° Northwest 198 228 5,300 -1,620 Descending Seattle Center
09:49PM 48.3278 -122.2769 324° Northwest 200 230 5,000 -1,320 Descending Seattle Center
09:50PM 48.3667 -122.3042 335° Northwest 188 216 4,000 -1,200 Descending Seattle Center
09:50PM 48.3778 -122.3147 328° Northwest 183 211 3,700 -420 Descending Seattle Center
09:51PM 48.4064 -122.3375 332° Northwest 182 209 3,600 -180 Descending Seattle Center